Terminal Aerodrome Forecast
Issued by NWS

Home | Current Version | Previous Version | Text Only | Print | Product List | Glossary On
Versions: 1 2 3 4 5 6 7 8 9 10 11 12 13 14 15 16 17 18 19 20 21 22 23 24 25 26 27 28 29 30 31 32 33 34 35 36 37 38 39 40 41 42 43 44 45 46 47 48 49 50
747
FTUS43 KDMX 200534
TAFMCW
TAF
KMCW 200534Z 2006/2106 14004KT 3/4SM -DZ BR OVC002
     FM200700 13005KT 1/4SM FG OVC002
     FM201600 12005KT 1SM BR OVC003
     FM201900 09006KT 3SM BR OVC010
     FM202300 12006KT 1/2SM FG OVC008
     FM210500 12007KT 3/4SM BR VCSH OVC005=

USA.gov is the U.S. government's official web portal to all federal, state and local government web resources and services.